sensor_id;sensor_type;location;lat;lon;timestamp;P1;durP1;ratioP1;P2;durP2;ratioP2
28802;SDS011;15949;55.656;37.422;2023-03-11T00:01:24;14.38;;;8.55;;
28802;SDS011;15949;55.656;37.422;2023-03-11T00:06:30;20.45;;;8.68;;
28802;SDS011;15949;55.656;37.422;2023-03-11T00:11:35;14.57;;;7.90;;
28802;SDS011;15949;55.656;37.422;2023-03-11T00:16:41;14.02;;;8.10;;
28802;SDS011;15949;55.656;37.422;2023-03-11T00:21:47;13.35;;;7.82;;
28802;SDS011;15949;55.656;37.422;2023-03-11T00:26:52;16.38;;;7.82;;
28802;SDS011;15949;55.656;37.422;2023-03-11T00:31:58;17.23;;;8.77;;
28802;SDS011;15949;55.656;37.422;2023-03-11T00:37:03;15.82;;;9.07;;
28802;SDS011;15949;55.656;37.422;2023-03-11T00:42:09;17.75;;;8.85;;
28802;SDS011;15949;55.656;37.422;2023-03-11T00:47:14;14.88;;;8.45;;
28802;SDS011;15949;55.656;37.422;2023-03-11T00:52:20;20.73;;;8.40;;
28802;SDS011;15949;55.656;37.422;2023-03-11T00:57:26;21.70;;;9.00;;
28802;SDS011;15949;55.656;37.422;2023-03-11T01:02:34;16.70;;;9.05;;
28802;SDS011;15949;55.656;37.422;2023-03-11T01:07:39;16.83;;;8.13;;
28802;SDS011;15949;55.656;37.422;2023-03-11T01:12:45;13.25;;;7.90;;
28802;SDS011;15949;55.656;37.422;2023-03-11T01:17:51;15.48;;;8.32;;
28802;SDS011;15949;55.656;37.422;2023-03-11T01:22:57;16.73;;;8.10;;
28802;SDS011;15949;55.656;37.422;2023-03-11T01:28:02;15.23;;;8.55;;
28802;SDS011;15949;55.656;37.422;2023-03-11T01:33:12;13.63;;;8.73;;
28802;SDS011;15949;55.656;37.422;2023-03-11T01:38:20;14.20;;;8.95;;
28802;SDS011;15949;55.656;37.422;2023-03-11T01:48:50;17.27;;;7.88;;
28802;SDS011;15949;55.656;37.422;2023-03-11T01:54:04;12.70;;;7.88;;
28802;SDS011;15949;55.656;37.422;2023-03-11T01:59:16;14.13;;;7.70;;
28802;SDS011;15949;55.656;37.422;2023-03-11T02:04:26;14.27;;;8.25;;
28802;SDS011;15949;55.656;37.422;2023-03-11T02:09:33;15.32;;;8.88;;
28802;SDS011;15949;55.656;37.422;2023-03-11T02:14:39;14.68;;;8.27;;
28802;SDS011;15949;55.656;37.422;2023-03-11T02:30:33;16.30;;;8.52;;
28802;SDS011;15949;55.656;37.422;2023-03-11T02:35:40;15.70;;;8.70;;
28802;SDS011;15949;55.656;37.422;2023-03-11T02:46:00;11.95;;;7.10;;
28802;SDS011;15949;55.656;37.422;2023-03-11T02:51:06;11.88;;;7.22;;
28802;SDS011;15949;55.656;37.422;2023-03-11T02:56:12;12.38;;;8.13;;
28802;SDS011;15949;55.656;37.422;2023-03-11T03:01:17;14.75;;;7.97;;
28802;SDS011;15949;55.656;37.422;2023-03-11T03:06:23;14.48;;;8.45;;
28802;SDS011;15949;55.656;37.422;2023-03-11T03:11:29;15.05;;;9.13;;
28802;SDS011;15949;55.656;37.422;2023-03-11T03:16:35;15.50;;;8.88;;
28802;SDS011;15949;55.656;37.422;2023-03-11T03:21:40;16.17;;;9.95;;
28802;SDS011;15949;55.656;37.422;2023-03-11T03:26:46;17.02;;;10.07;;
28802;SDS011;15949;55.656;37.422;2023-03-11T03:31:51;15.82;;;10.63;;
28802;SDS011;15949;55.656;37.422;2023-03-11T03:36:57;19.80;;;12.57;;
28802;SDS011;15949;55.656;37.422;2023-03-11T03:42:03;22.65;;;13.02;;
28802;SDS011;15949;55.656;37.422;2023-03-11T03:47:08;18.92;;;13.00;;
28802;SDS011;15949;55.656;37.422;2023-03-11T03:52:14;19.98;;;13.35;;
28802;SDS011;15949;55.656;37.422;2023-03-11T03:57:20;23.48;;;14.63;;
28802;SDS011;15949;55.656;37.422;2023-03-11T04:02:25;19.80;;;13.55;;
28802;SDS011;15949;55.656;37.422;2023-03-11T04:07:32;22.30;;;14.43;;
28802;SDS011;15949;55.656;37.422;2023-03-11T04:12:39;23.35;;;14.30;;
28802;SDS011;15949;55.656;37.422;2023-03-11T04:17:44;23.02;;;14.88;;
28802;SDS011;15949;55.656;37.422;2023-03-11T04:22:50;21.33;;;13.25;;
28802;SDS011;15949;55.656;37.422;2023-03-11T04:27:55;22.15;;;12.52;;
28802;SDS011;15949;55.656;37.422;2023-03-11T04:33:01;18.77;;;12.05;;
28802;SDS011;15949;55.656;37.422;2023-03-11T04:38:07;19.73;;;12.27;;
28802;SDS011;15949;55.656;37.422;2023-03-11T04:43:13;20.42;;;11.00;;
28802;SDS011;15949;55.656;37.422;2023-03-11T04:48:18;18.02;;;10.02;;
28802;SDS011;15949;55.656;37.422;2023-03-11T04:53:24;14.20;;;9.40;;
28802;SDS011;15949;55.656;37.422;2023-03-11T04:58:30;19.83;;;8.93;;
28802;SDS011;15949;55.656;37.422;2023-03-11T05:03:35;15.43;;;8.43;;
28802;SDS011;15949;55.656;37.422;2023-03-11T05:08:41;12.88;;;8.10;;
28802;SDS011;15949;55.656;37.422;2023-03-11T05:13:46;14.32;;;9.18;;
28802;SDS011;15949;55.656;37.422;2023-03-11T05:18:52;15.20;;;8.98;;
28802;SDS011;15949;55.656;37.422;2023-03-11T05:23:58;17.98;;;8.98;;
28802;SDS011;15949;55.656;37.422;2023-03-11T05:29:03;12.65;;;8.25;;
28802;SDS011;15949;55.656;37.422;2023-03-11T05:34:09;15.98;;;8.50;;
28802;SDS011;15949;55.656;37.422;2023-03-11T05:39:14;13.95;;;8.85;;
28802;SDS011;15949;55.656;37.422;2023-03-11T05:44:20;13.90;;;9.43;;
28802;SDS011;15949;55.656;37.422;2023-03-11T05:49:25;15.80;;;9.48;;
28802;SDS011;15949;55.656;37.422;2023-03-11T05:54:32;17.60;;;9.48;;
28802;SDS011;15949;55.656;37.422;2023-03-11T05:59:37;16.75;;;9.52;;
28802;SDS011;15949;55.656;37.422;2023-03-11T06:04:43;16.20;;;10.57;;
28802;SDS011;15949;55.656;37.422;2023-03-11T06:09:49;17.83;;;10.13;;
28802;SDS011;15949;55.656;37.422;2023-03-11T06:14:54;19.23;;;10.10;;
28802;SDS011;15949;55.656;37.422;2023-03-11T06:20:00;17.10;;;10.02;;
28802;SDS011;15949;55.656;37.422;2023-03-11T06:25:06;17.65;;;9.95;;
28802;SDS011;15949;55.656;37.422;2023-03-11T06:30:12;20.73;;;10.25;;
28802;SDS011;15949;55.656;37.422;2023-03-11T06:35:18;19.08;;;10.70;;
28802;SDS011;15949;55.656;37.422;2023-03-11T06:40:24;20.38;;;11.23;;
28802;SDS011;15949;55.656;37.422;2023-03-11T06:45:29;19.05;;;11.35;;
28802;SDS011;15949;55.656;37.422;2023-03-11T06:50:35;17.08;;;11.35;;
28802;SDS011;15949;55.656;37.422;2023-03-11T06:55:40;16.83;;;11.20;;
28802;SDS011;15949;55.656;37.422;2023-03-11T07:00:46;18.17;;;10.60;;
28802;SDS011;15949;55.656;37.422;2023-03-11T07:05:51;17.45;;;10.55;;
28802;SDS011;15949;55.656;37.422;2023-03-11T07:11:01;15.85;;;9.68;;
28802;SDS011;15949;55.656;37.422;2023-03-11T07:21:21;12.85;;;8.68;;
28802;SDS011;15949;55.656;37.422;2023-03-11T07:26:28;14.82;;;9.50;;
28802;SDS011;15949;55.656;37.422;2023-03-11T07:31:35;15.55;;;8.63;;
28802;SDS011;15949;55.656;37.422;2023-03-11T07:36:41;13.95;;;9.13;;
28802;SDS011;15949;55.656;37.422;2023-03-11T07:41:47;15.32;;;9.65;;
28802;SDS011;15949;55.656;37.422;2023-03-11T07:46:53;15.38;;;9.40;;
28802;SDS011;15949;55.656;37.422;2023-03-11T07:51:59;14.35;;;9.13;;
28802;SDS011;15949;55.656;37.422;2023-03-11T07:57:05;18.10;;;9.60;;
28802;SDS011;15949;55.656;37.422;2023-03-11T08:02:11;17.92;;;9.45;;
28802;SDS011;15949;55.656;37.422;2023-03-11T08:07:17;14.23;;;9.63;;
28802;SDS011;15949;55.656;37.422;2023-03-11T08:12:27;14.75;;;8.65;;
28802;SDS011;15949;55.656;37.422;2023-03-11T08:17:33;13.55;;;8.80;;
28802;SDS011;15949;55.656;37.422;2023-03-11T08:22:39;12.20;;;7.38;;
28802;SDS011;15949;55.656;37.422;2023-03-11T08:27:44;15.77;;;8.15;;
28802;SDS011;15949;55.656;37.422;2023-03-11T08:32:50;13.68;;;8.15;;
28802;SDS011;15949;55.656;37.422;2023-03-11T08:37:55;14.10;;;8.45;;
28802;SDS011;15949;55.656;37.422;2023-03-11T08:43:01;11.32;;;7.50;;
28802;SDS011;15949;55.656;37.422;2023-03-11T08:48:08;13.82;;;7.90;;
28802;SDS011;15949;55.656;37.422;2023-03-11T08:53:15;12.32;;;8.25;;
28802;SDS011;15949;55.656;37.422;2023-03-11T08:58:20;13.68;;;8.95;;
28802;SDS011;15949;55.656;37.422;2023-03-11T09:03:26;13.77;;;8.60;;
28802;SDS011;15949;55.656;37.422;2023-03-11T09:08:34;10.70;;;7.88;;
28802;SDS011;15949;55.656;37.422;2023-03-11T09:13:41;12.65;;;7.82;;
28802;SDS011;15949;55.656;37.422;2023-03-11T09:18:47;13.32;;;8.20;;
28802;SDS011;15949;55.656;37.422;2023-03-11T09:23:53;16.52;;;9.32;;
28802;SDS011;15949;55.656;37.422;2023-03-11T09:28:59;11.82;;;8.07;;
28802;SDS011;15949;55.656;37.422;2023-03-11T09:34:04;14.13;;;7.50;;
28802;SDS011;15949;55.656;37.422;2023-03-11T09:39:10;9.57;;;7.07;;
28802;SDS011;15949;55.656;37.422;2023-03-11T09:49:53;11.50;;;7.78;;
28802;SDS011;15949;55.656;37.422;2023-03-11T09:55:03;10.80;;;7.72;;
28802;SDS011;15949;55.656;37.422;2023-03-11T10:00:21;11.40;;;7.47;;
28802;SDS011;15949;55.656;37.422;2023-03-11T10:05:28;9.55;;;6.68;;
28802;SDS011;15949;55.656;37.422;2023-03-11T10:10:37;9.68;;;6.43;;
28802;SDS011;15949;55.656;37.422;2023-03-11T10:32:12;11.00;;;7.10;;
28802;SDS011;15949;55.656;37.422;2023-03-11T10:37:18;9.93;;;7.03;;
28802;SDS011;15949;55.656;37.422;2023-03-11T10:42:28;11.85;;;8.43;;
28802;SDS011;15949;55.656;37.422;2023-03-11T10:47:34;10.57;;;7.82;;
28802;SDS011;15949;55.656;37.422;2023-03-11T10:58:13;14.32;;;8.73;;
28802;SDS011;15949;55.656;37.422;2023-03-11T11:03:22;12.35;;;8.30;;
28802;SDS011;15949;55.656;37.422;2023-03-11T11:08:29;12.68;;;8.30;;
28802;SDS011;15949;55.656;37.422;2023-03-11T11:13:35;12.73;;;8.65;;
28802;SDS011;15949;55.656;37.422;2023-03-11T11:18:44;12.90;;;7.45;;
28802;SDS011;15949;55.656;37.422;2023-03-11T11:24:15;13.50;;;8.63;;
28802;SDS011;15949;55.656;37.422;2023-03-11T11:29:22;13.10;;;8.30;;
28802;SDS011;15949;55.656;37.422;2023-03-11T11:34:32;13.13;;;8.30;;
28802;SDS011;15949;55.656;37.422;2023-03-11T11:39:46;12.93;;;8.55;;
28802;SDS011;15949;55.656;37.422;2023-03-11T11:44:59;12.02;;;8.23;;
28802;SDS011;15949;55.656;37.422;2023-03-11T11:50:24;11.95;;;8.38;;
28802;SDS011;15949;55.656;37.422;2023-03-11T11:55:43;17.45;;;9.65;;
28802;SDS011;15949;55.656;37.422;2023-03-11T12:12:03;13.20;;;8.60;;
28802;SDS011;15949;55.656;37.422;2023-03-11T12:17:23;15.60;;;9.43;;
28802;SDS011;15949;55.656;37.422;2023-03-11T12:28:15;14.98;;;8.73;;
28802;SDS011;15949;55.656;37.422;2023-03-11T12:48:43;12.90;;;8.70;;
28802;SDS011;15949;55.656;37.422;2023-03-11T12:53:50;13.95;;;9.38;;
28802;SDS011;15949;55.656;37.422;2023-03-11T13:31:01;14.98;;;9.60;;
28802;SDS011;15949;55.656;37.422;2023-03-11T13:36:35;16.30;;;10.30;;
28802;SDS011;15949;55.656;37.422;2023-03-11T13:41:43;16.45;;;10.50;;
28802;SDS011;15949;55.656;37.422;2023-03-11T13:46:51;17.42;;;10.43;;
28802;SDS011;15949;55.656;37.422;2023-03-11T13:52:01;16.58;;;10.43;;
28802;SDS011;15949;55.656;37.422;2023-03-11T13:57:41;19.42;;;10.77;;
28802;SDS011;15949;55.656;37.422;2023-03-11T14:02:48;17.77;;;11.40;;
28802;SDS011;15949;55.656;37.422;2023-03-11T14:08:10;17.25;;;10.75;;
28802;SDS011;15949;55.656;37.422;2023-03-11T14:13:17;17.20;;;10.75;;
28802;SDS011;15949;55.656;37.422;2023-03-11T14:18:25;25.30;;;11.95;;
28802;SDS011;15949;55.656;37.422;2023-03-11T14:23:35;23.70;;;11.85;;
28802;SDS011;15949;55.656;37.422;2023-03-11T14:28:47;20.95;;;11.68;;
28802;SDS011;15949;55.656;37.422;2023-03-11T14:34:01;21.23;;;12.80;;
28802;SDS011;15949;55.656;37.422;2023-03-11T14:39:22;21.65;;;13.10;;
28802;SDS011;15949;55.656;37.422;2023-03-11T14:44:39;18.43;;;11.90;;
28802;SDS011;15949;55.656;37.422;2023-03-11T14:49:46;18.20;;;11.30;;
28802;SDS011;15949;55.656;37.422;2023-03-11T14:54:54;18.70;;;11.43;;
28802;SDS011;15949;55.656;37.422;2023-03-11T15:00:01;18.65;;;11.02;;
28802;SDS011;15949;55.656;37.422;2023-03-11T15:05:19;19.02;;;10.88;;
28802;SDS011;15949;55.656;37.422;2023-03-11T15:10:30;19.90;;;11.75;;
28802;SDS011;15949;55.656;37.422;2023-03-11T15:15:36;18.55;;;11.73;;
28802;SDS011;15949;55.656;37.422;2023-03-11T15:20:42;18.73;;;11.68;;
28802;SDS011;15949;55.656;37.422;2023-03-11T15:25:48;19.70;;;11.70;;
28802;SDS011;15949;55.656;37.422;2023-03-11T15:41:46;20.52;;;12.57;;
28802;SDS011;15949;55.656;37.422;2023-03-11T15:47:13;16.03;;;10.17;;
28802;SDS011;15949;55.656;37.422;2023-03-11T15:52:21;21.80;;;13.10;;
28802;SDS011;15949;55.656;37.422;2023-03-11T15:57:26;24.20;;;13.02;;
28802;SDS011;15949;55.656;37.422;2023-03-11T16:02:33;22.50;;;13.00;;
28802;SDS011;15949;55.656;37.422;2023-03-11T16:07:39;24.80;;;13.30;;
28802;SDS011;15949;55.656;37.422;2023-03-11T16:12:44;23.38;;;13.40;;
28802;SDS011;15949;55.656;37.422;2023-03-11T16:17:51;27.23;;;14.25;;
28802;SDS011;15949;55.656;37.422;2023-03-11T16:22:57;24.50;;;14.75;;
28802;SDS011;15949;55.656;37.422;2023-03-11T16:28:05;24.20;;;14.35;;
28802;SDS011;15949;55.656;37.422;2023-03-11T16:33:11;27.65;;;15.48;;
28802;SDS011;15949;55.656;37.422;2023-03-11T16:38:17;25.65;;;15.15;;
28802;SDS011;15949;55.656;37.422;2023-03-11T16:43:23;29.13;;;15.60;;
28802;SDS011;15949;55.656;37.422;2023-03-11T16:48:30;28.23;;;15.02;;
28802;SDS011;15949;55.656;37.422;2023-03-11T16:53:35;22.80;;;13.93;;
28802;SDS011;15949;55.656;37.422;2023-03-11T16:58:41;27.38;;;15.93;;
28802;SDS011;15949;55.656;37.422;2023-03-11T17:03:48;27.20;;;14.40;;
28802;SDS011;15949;55.656;37.422;2023-03-11T17:08:54;23.95;;;14.73;;
28802;SDS011;15949;55.656;37.422;2023-03-11T17:14:00;26.67;;;14.90;;
28802;SDS011;15949;55.656;37.422;2023-03-11T17:19:05;25.45;;;14.65;;
28802;SDS011;15949;55.656;37.422;2023-03-11T17:24:11;28.33;;;14.27;;
28802;SDS011;15949;55.656;37.422;2023-03-11T17:29:17;26.55;;;14.52;;
28802;SDS011;15949;55.656;37.422;2023-03-11T17:34:23;22.42;;;14.73;;
28802;SDS011;15949;55.656;37.422;2023-03-11T17:39:28;24.63;;;14.32;;
28802;SDS011;15949;55.656;37.422;2023-03-11T17:44:34;28.17;;;14.90;;
28802;SDS011;15949;55.656;37.422;2023-03-11T17:49:40;22.45;;;14.40;;
28802;SDS011;15949;55.656;37.422;2023-03-11T17:54:45;30.45;;;15.88;;
28802;SDS011;15949;55.656;37.422;2023-03-11T17:59:51;24.00;;;14.95;;
28802;SDS011;15949;55.656;37.422;2023-03-11T18:04:57;26.88;;;15.32;;
28802;SDS011;15949;55.656;37.422;2023-03-11T18:10:02;27.33;;;14.05;;
28802;SDS011;15949;55.656;37.422;2023-03-11T18:15:08;24.85;;;13.98;;
28802;SDS011;15949;55.656;37.422;2023-03-11T18:20:18;22.48;;;13.70;;
28802;SDS011;15949;55.656;37.422;2023-03-11T18:25:24;22.98;;;14.15;;
28802;SDS011;15949;55.656;37.422;2023-03-11T18:30:30;25.08;;;14.55;;
28802;SDS011;15949;55.656;37.422;2023-03-11T18:35:35;25.65;;;15.43;;
28802;SDS011;15949;55.656;37.422;2023-03-11T18:40:41;23.23;;;14.63;;
28802;SDS011;15949;55.656;37.422;2023-03-11T18:45:47;25.48;;;14.70;;
28802;SDS011;15949;55.656;37.422;2023-03-11T18:50:53;30.13;;;15.85;;
28802;SDS011;15949;55.656;37.422;2023-03-11T18:56:01;27.58;;;16.27;;
28802;SDS011;15949;55.656;37.422;2023-03-11T19:06:24;30.63;;;17.75;;
28802;SDS011;15949;55.656;37.422;2023-03-11T19:11:31;34.40;;;18.45;;
28802;SDS011;15949;55.656;37.422;2023-03-11T19:16:37;32.17;;;18.85;;
28802;SDS011;15949;55.656;37.422;2023-03-11T19:21:42;34.20;;;18.90;;
28802;SDS011;15949;55.656;37.422;2023-03-11T19:26:48;33.35;;;20.35;;
28802;SDS011;15949;55.656;37.422;2023-03-11T19:31:54;33.10;;;19.27;;
28802;SDS011;15949;55.656;37.422;2023-03-11T19:36:59;37.03;;;20.17;;
28802;SDS011;15949;55.656;37.422;2023-03-11T19:42:05;39.45;;;22.95;;
28802;SDS011;15949;55.656;37.422;2023-03-11T19:47:10;36.30;;;21.23;;
28802;SDS011;15949;55.656;37.422;2023-03-11T19:52:16;37.88;;;21.13;;
28802;SDS011;15949;55.656;37.422;2023-03-11T19:57:22;35.20;;;21.02;;
28802;SDS011;15949;55.656;37.422;2023-03-11T20:02:28;37.78;;;20.85;;
28802;SDS011;15949;55.656;37.422;2023-03-11T20:07:33;39.22;;;22.08;;
28802;SDS011;15949;55.656;37.422;2023-03-11T20:12:39;36.90;;;20.25;;
28802;SDS011;15949;55.656;37.422;2023-03-11T20:17:45;28.75;;;17.63;;
28802;SDS011;15949;55.656;37.422;2023-03-11T20:22:50;29.33;;;17.30;;
28802;SDS011;15949;55.656;37.422;2023-03-11T20:27:56;30.40;;;15.80;;
28802;SDS011;15949;55.656;37.422;2023-03-11T20:33:02;30.73;;;17.50;;
28802;SDS011;15949;55.656;37.422;2023-03-11T20:38:07;32.92;;;19.20;;
28802;SDS011;15949;55.656;37.422;2023-03-11T20:43:14;34.60;;;18.75;;
28802;SDS011;15949;55.656;37.422;2023-03-11T20:48:19;33.33;;;19.27;;
28802;SDS011;15949;55.656;37.422;2023-03-11T20:53:25;34.15;;;18.05;;
28802;SDS011;15949;55.656;37.422;2023-03-11T20:58:31;33.85;;;19.02;;
28802;SDS011;15949;55.656;37.422;2023-03-11T21:03:36;36.22;;;19.23;;
28802;SDS011;15949;55.656;37.422;2023-03-11T21:08:42;32.92;;;19.95;;
28802;SDS011;15949;55.656;37.422;2023-03-11T21:13:48;35.55;;;19.15;;
28802;SDS011;15949;55.656;37.422;2023-03-11T21:18:53;28.75;;;16.55;;
28802;SDS011;15949;55.656;37.422;2023-03-11T21:23:59;28.00;;;15.82;;
28802;SDS011;15949;55.656;37.422;2023-03-11T21:29:05;31.65;;;16.60;;
28802;SDS011;15949;55.656;37.422;2023-03-11T21:34:11;28.80;;;16.45;;
28802;SDS011;15949;55.656;37.422;2023-03-11T21:39:16;29.73;;;14.85;;
28802;SDS011;15949;55.656;37.422;2023-03-11T21:44:22;26.23;;;15.15;;
28802;SDS011;15949;55.656;37.422;2023-03-11T21:49:28;29.42;;;15.27;;
28802;SDS011;15949;55.656;37.422;2023-03-11T21:54:35;26.55;;;14.68;;
28802;SDS011;15949;55.656;37.422;2023-03-11T21:59:40;27.10;;;16.02;;
28802;SDS011;15949;55.656;37.422;2023-03-11T22:04:46;25.02;;;14.80;;
28802;SDS011;15949;55.656;37.422;2023-03-11T22:09:52;28.23;;;14.82;;
28802;SDS011;15949;55.656;37.422;2023-03-11T22:14:58;26.48;;;13.98;;
28802;SDS011;15949;55.656;37.422;2023-03-11T22:20:04;24.42;;;13.38;;
28802;SDS011;15949;55.656;37.422;2023-03-11T22:25:10;20.45;;;12.65;;
28802;SDS011;15949;55.656;37.422;2023-03-11T22:30:16;25.25;;;13.38;;
28802;SDS011;15949;55.656;37.422;2023-03-11T22:35:22;18.63;;;12.30;;
28802;SDS011;15949;55.656;37.422;2023-03-11T22:40:27;20.98;;;11.65;;
28802;SDS011;15949;55.656;37.422;2023-03-11T22:45:33;18.08;;;10.02;;
28802;SDS011;15949;55.656;37.422;2023-03-11T22:50:39;18.33;;;11.82;;
28802;SDS011;15949;55.656;37.422;2023-03-11T22:55:46;17.00;;;9.40;;
28802;SDS011;15949;55.656;37.422;2023-03-11T23:00:51;12.43;;;8.25;;
28802;SDS011;15949;55.656;37.422;2023-03-11T23:05:58;14.55;;;8.38;;
28802;SDS011;15949;55.656;37.422;2023-03-11T23:11:07;12.50;;;7.50;;
28802;SDS011;15949;55.656;37.422;2023-03-11T23:16:18;9.50;;;6.90;;
28802;SDS011;15949;55.656;37.422;2023-03-11T23:21:27;10.98;;;7.32;;
28802;SDS011;15949;55.656;37.422;2023-03-11T23:26:35;13.10;;;7.10;;
28802;SDS011;15949;55.656;37.422;2023-03-11T23:31:41;12.07;;;7.35;;
28802;SDS011;15949;55.656;37.422;2023-03-11T23:36:47;11.90;;;6.80;;
28802;SDS011;15949;55.656;37.422;2023-03-11T23:41:52;10.75;;;7.50;;
28802;SDS011;15949;55.656;37.422;2023-03-11T23:46:58;10.48;;;7.60;;
28802;SDS011;15949;55.656;37.422;2023-03-11T23:52:04;11.68;;;7.93;;
28802;SDS011;15949;55.656;37.422;2023-03-11T23:57:10;11.07;;;7.97;;
